Time;durP1;ratioP1;P1;durP2;ratioP2;P2;SDS_P1;SDS_P2;PMS_P1;PMS_P2;Temp;Humidity;BMP_temperature;BMP_pressure;BME280_temperature;BME280_humidity;BME280_pressure;Samples;Min_cycle;Max_cycle;Signal;HPM_P1;HPM_P2
2021/05/11 00:00:00;;;;;;;;;;;23.90;37.40;;;;;;1579454;74;1135;-59
2021/05/11 00:02:02;;;;;;;;;;;23.90;37.10;;;;;;1586710;74;1950;-58
2021/05/11 00:04:04;;;;;;;;;;;23.90;37.30;;;;;;1566530;74;708;-58
2021/05/11 00:06:06;;;;;;;;;;;23.90;37.40;;;;;;1567799;74;808;-57
2021/05/11 00:08:08;;;;;;;;;;;23.90;37.40;;;;;;1567386;74;744;-57
2021/05/11 00:10:10;;;;;;;;;;;24.00;37.30;;;;;;1579625;74;1191;-57
2021/05/11 00:12:12;;;;;;;;;;;24.00;37.30;;;;;;1574884;74;694;-57
2021/05/11 00:14:14;;;;;;;;;;;24.00;37.30;;;;;;1569928;74;742;-56
2021/05/11 00:16:16;;;;;;;;;;;24.00;37.30;;;;;;1563669;74;768;-56
2021/05/11 00:18:17;;;;;;;;;;;24.00;37.50;;;;;;1573192;74;792;-56
2021/05/11 00:20:19;;;;;;;;;;;24.00;37.50;;;;;;1573624;74;1135;-58
2021/05/11 00:22:21;;;;;;;;;;;24.00;37.30;;;;;;1572598;74;1942;-58
2021/05/11 00:24:23;;;;;;;;;;;23.90;37.50;;;;;;1567620;74;773;-58
2021/05/11 00:26:25;;;;;;;;;;;24.00;37.60;;;;;;1576013;74;694;-56
2021/05/11 00:28:27;;;;;;;;;;;23.90;37.50;;;;;;1572727;74;671;-55
2021/05/11 00:30:29;;;;;;;;;;;24.00;37.70;;;;;;1578712;74;1204;-54
2021/05/11 00:32:30;;;;;;;;;;;23.90;37.60;;;;;;1572032;74;756;-58
2021/05/11 00:34:32;;;;;;;;;;;23.90;37.70;;;;;;1567506;74;794;-58
2021/05/11 00:36:34;;;;;;;;;;;23.90;37.70;;;;;;1578782;74;741;-58
2021/05/11 00:38:36;;;;;;;;;;;23.90;37.70;;;;;;1576737;74;777;-58
2021/05/11 00:40:38;;;;;;;;;;;23.90;37.90;;;;;;1568021;74;1943;-58
2021/05/11 00:42:40;;;;;;;;;;;23.90;37.90;;;;;;1571528;74;751;-58
2021/05/11 00:44:42;;;;;;;;;;;23.90;37.80;;;;;;1573945;74;880;-58
2021/05/11 00:46:44;;;;;;;;;;;23.90;38.00;;;;;;1575598;74;740;-57
2021/05/11 00:48:45;;;;;;;;;;;23.90;37.90;;;;;;1573486;74;749;-58
2021/05/11 00:50:47;;;;;;;;;;;23.90;38.00;;;;;;1566630;74;1122;-59
2021/05/11 00:52:49;;;;;;;;;;;23.80;38.10;;;;;;1568961;74;804;-58
2021/05/11 00:54:51;;;;;;;;;;;23.90;38.60;;;;;;1568710;74;780;-59
2021/05/11 00:56:53;;;;;;;;;;;23.90;38.20;;;;;;1566774;74;721;-58
2021/05/11 00:58:55;;;;;;;;;;;23.90;38.10;;;;;;1573752;74;776;-58
2021/05/11 01:00:57;;;;;;;;;;;23.90;38.10;;;;;;1571189;74;1954;-58
2021/05/11 01:02:59;;;;;;;;;;;23.90;38.10;;;;;;1566578;74;770;-58
2021/05/11 01:05:01;;;;;;;;;;;23.90;38.10;;;;;;1574099;74;717;-58
2021/05/11 01:07:03;;;;;;;;;;;23.90;38.30;;;;;;1574467;74;766;-59
2021/05/11 01:09:05;;;;;;;;;;;23.80;38.10;;;;;;1566080;74;848;-59
2021/05/11 01:11:07;;;;;;;;;;;23.80;37.90;;;;;;1572479;74;1140;-58
2021/05/11 01:13:08;;;;;;;;;;;23.80;38.00;;;;;;1570468;74;746;-59
2021/05/11 01:15:11;;;;;;;;;;;23.80;38.00;;;;;;1567308;74;768;-59
2021/05/11 01:17:22;;;;;;;;;;;23.80;38.00;;;;;;1569742;74;723;-59
2021/05/11 01:21:59;;;;;;;;;;;23.80;38.00;;;;;;1571046;74;1994;-59
2021/05/11 01:24:01;;;;;;;;;;;23.80;37.90;;;;;;1571971;74;1713;-58
2021/05/11 01:26:07;;;;;;;;;;;23.70;37.80;;;;;;1573236;74;1642;-58
2021/05/11 01:28:16;;;;;;;;;;;23.80;37.80;;;;;;1567800;74;1647;-59
2021/05/11 01:32:50;;;;;;;;;;;23.70;37.80;;;;;;1570122;74;859;-59
2021/05/11 01:44:25;;;;;;;;;;;23.70;38.20;;;;;;1573565;74;1657;-58
2021/05/11 01:50:42;;;;;;;;;;;23.70;38.10;;;;;;1572375;74;1175;-58
2021/05/11 01:52:55;;;;;;;;;;;23.70;38.10;;;;;;1568596;74;1718;-61
2021/05/11 01:55:03;;;;;;;;;;;23.80;38.00;;;;;;1573564;74;1689;-59
2021/05/11 02:11:16;;;;;;;;;;;23.70;38.00;;;;;;1591362;73;1612;-56
2021/05/11 02:24:37;;;;;;;;;;;23.60;37.60;;;;;;1591391;73;1638;-56
2021/05/11 02:26:39;;;;;;;;;;;23.60;37.60;;;;;;1594401;73;782;-55
2021/05/11 02:28:41;;;;;;;;;;;23.70;37.60;;;;;;1597028;73;760;-55
2021/05/11 02:30:43;;;;;;;;;;;23.70;37.60;;;;;;1591028;73;1119;-55
2021/05/11 02:32:45;;;;;;;;;;;23.60;37.30;;;;;;1608915;73;757;-56
2021/05/11 02:34:46;;;;;;;;;;;23.70;37.40;;;;;;1597248;73;904;-52
2021/05/11 02:36:48;;;;;;;;;;;23.70;37.40;;;;;;1589358;73;681;-54
2021/05/11 02:38:50;;;;;;;;;;;23.60;37.30;;;;;;1586357;73;729;-52
2021/05/11 02:40:52;;;;;;;;;;;23.70;37.60;;;;;;1593477;73;1117;-55
2021/05/11 02:43:07;;;;;;;;;;;23.70;37.60;;;;;;1590035;73;1956;-55
2021/05/11 02:45:10;;;;;;;;;;;23.70;37.60;;;;;;1598850;73;1740;-53
2021/05/11 02:47:10;;;;;;;;;;;23.70;37.50;;;;;;1591697;73;1644;-55
2021/05/11 02:49:13;;;;;;;;;;;23.70;37.50;;;;;;1596044;73;742;-55
2021/05/11 02:51:15;;;;;;;;;;;23.70;37.40;;;;;;1588491;73;1065;-55
2021/05/11 02:53:16;;;;;;;;;;;23.70;37.50;;;;;;1589674;73;779;-55
2021/05/11 02:55:18;;;;;;;;;;;23.70;37.50;;;;;;1599847;73;784;-55
2021/05/11 02:57:20;;;;;;;;;;;23.80;37.80;;;;;;1598480;73;749;-56
2021/05/11 02:59:22;;;;;;;;;;;23.70;37.80;;;;;;1595340;73;760;-55
2021/05/11 03:01:24;;;;;;;;;;;23.70;37.90;;;;;;1598143;73;1944;-55
2021/05/11 03:03:26;;;;;;;;;;;23.80;38.00;;;;;;1590247;73;799;-54
2021/05/11 03:05:28;;;;;;;;;;;23.70;38.00;;;;;;1592195;73;597;-52
2021/05/11 03:07:30;;;;;;;;;;;23.80;38.00;;;;;;1592200;73;773;-56
2021/05/11 03:09:31;;;;;;;;;;;23.80;38.10;;;;;;1596602;73;1152;-56
2021/05/11 03:11:33;;;;;;;;;;;23.80;38.10;;;;;;1601766;73;765;-55
2021/05/11 03:13:35;;;;;;;;;;;23.80;38.10;;;;;;1596448;73;656;-51
2021/05/11 03:15:37;;;;;;;;;;;23.80;38.00;;;;;;1592319;73;690;-52
2021/05/11 03:17:39;;;;;;;;;;;23.70;38.10;;;;;;1600763;73;772;-54
2021/05/11 03:19:41;;;;;;;;;;;23.80;38.10;;;;;;1588950;73;1174;-54
2021/05/11 03:21:43;;;;;;;;;;;23.80;38.10;;;;;;1591603;73;1941;-52
2021/05/11 03:23:44;;;;;;;;;;;23.80;38.30;;;;;;1595378;73;766;-55
2021/05/11 03:25:46;;;;;;;;;;;23.80;38.30;;;;;;1597781;73;697;-55
2021/05/11 03:27:48;;;;;;;;;;;23.80;38.10;;;;;;1595296;73;761;-55
2021/05/11 03:29:50;;;;;;;;;;;23.80;38.00;;;;;;1593427;73;1136;-55
2021/05/11 03:31:52;;;;;;;;;;;23.80;38.00;;;;;;1590150;73;784;-55
2021/05/11 03:33:54;;;;;;;;;;;23.70;38.00;;;;;;1590832;73;607;-55
2021/05/11 03:35:56;;;;;;;;;;;23.80;37.80;;;;;;1590026;73;809;-54
2021/05/11 03:37:58;;;;;;;;;;;23.80;37.80;;;;;;1601453;73;877;-53
2021/05/11 03:39:59;;;;;;;;;;;23.90;37.90;;;;;;1595651;73;1143;-54
2021/05/11 03:42:09;;;;;;;;;;;23.80;37.90;;;;;;1596485;73;1933;-55
2021/05/11 03:44:12;;;;;;;;;;;23.70;37.90;;;;;;1594320;73;1541;-55
2021/05/11 03:46:10;;;;;;;;;;;23.70;37.80;;;;;;1590912;73;1726;-54
2021/05/11 03:48:12;;;;;;;;;;;23.80;37.80;;;;;;1595132;73;710;-55
2021/05/11 03:50:15;;;;;;;;;;;23.80;37.90;;;;;;1589045;73;1191;-56
2021/05/11 03:52:17;;;;;;;;;;;23.70;38.10;;;;;;1596167;73;796;-53
2021/05/11 03:54:19;;;;;;;;;;;23.80;37.90;;;;;;1590090;73;788;-53
2021/05/11 03:56:20;;;;;;;;;;;23.80;38.00;;;;;;1584447;73;798;-56
2021/05/11 03:58:22;;;;;;;;;;;23.80;38.00;;;;;;1595429;73;765;-56
2021/05/11 04:00:24;;;;;;;;;;;23.80;37.90;;;;;;1592628;73;1071;-54
2021/05/11 04:02:26;;;;;;;;;;;23.80;38.00;;;;;;1603452;73;1941;-55
2021/05/11 04:04:28;;;;;;;;;;;23.80;38.00;;;;;;1591231;73;779;-55
2021/05/11 04:06:30;;;;;;;;;;;23.80;37.80;;;;;;1600456;73;694;-54
2021/05/11 04:08:37;;;;;;;;;;;23.80;37.80;;;;;;1590876;73;707;-55
2021/05/11 04:10:39;;;;;;;;;;;23.80;37.60;;;;;;1603218;73;1620;-53
2021/05/11 04:12:57;;;;;;;;;;;23.90;37.90;;;;;;1594081;73;1701;-55
2021/05/11 04:17:05;;;;;;;;;;;23.80;37.80;;;;;;1582544;73;627;-54
2021/05/11 04:19:07;;;;;;;;;;;23.80;37.80;;;;;;1595407;73;702;-55
2021/05/11 04:21:08;;;;;;;;;;;23.80;37.70;;;;;;1595769;73;1140;-54
2021/05/11 04:23:10;;;;;;;;;;;23.80;37.60;;;;;;1587880;73;1943;-52
2021/05/11 04:25:12;;;;;;;;;;;23.80;37.60;;;;;;1567882;75;873;-51
2021/05/11 04:27:14;;;;;;;;;;;23.80;37.60;;;;;;1574633;75;763;-55
2021/05/11 04:29:16;;;;;;;;;;;23.80;37.50;;;;;;1573763;75;787;-55
2021/05/11 04:31:18;;;;;;;;;;;23.80;37.60;;;;;;1553411;75;1041;-56
2021/05/11 04:33:20;;;;;;;;;;;23.80;37.60;;;;;;1548762;75;798;-56
2021/05/11 04:35:22;;;;;;;;;;;23.80;37.60;;;;;;1550205;75;782;-54
2021/05/11 04:37:24;;;;;;;;;;;23.80;37.50;;;;;;1582983;74;828;-55
2021/05/11 04:39:26;;;;;;;;;;;23.80;37.50;;;;;;1582710;74;1135;-55
2021/05/11 04:41:27;;;;;;;;;;;23.80;37.40;;;;;;1574663;74;790;-53
2021/05/11 04:43:31;;;;;;;;;;;23.70;37.40;;;;;;1575344;74;1933;-55
2021/05/11 04:45:34;;;;;;;;;;;23.80;37.40;;;;;;1578745;74;708;-52
2021/05/11 04:47:57;;;;;;;;;;;23.80;37.40;;;;;;1576400;74;786;-54
2021/05/11 04:49:39;;;;;;;;;;;23.80;37.40;;;;;;1571667;74;1353;-55
2021/05/11 04:51:41;;;;;;;;;;;23.80;37.50;;;;;;1579476;74;780;-55
2021/05/11 04:53:43;;;;;;;;;;;23.70;37.70;;;;;;1583849;74;806;-55
2021/05/11 04:55:45;;;;;;;;;;;23.80;37.80;;;;;;1595423;74;908;-55
2021/05/11 04:57:47;;;;;;;;;;;23.80;38.00;;;;;;1578879;74;763;-55
2021/05/11 04:59:49;;;;;;;;;;;23.80;37.90;;;;;;1594764;74;1145;-55
2021/05/11 05:01:53;;;;;;;;;;;23.80;37.80;;;;;;1583788;74;795;-53
2021/05/11 05:03:58;;;;;;;;;;;23.70;37.90;;;;;;1567991;74;1917;-55
2021/05/11 05:05:58;;;;;;;;;;;23.70;37.80;;;;;;1575258;74;1656;-54
2021/05/11 05:08:00;;;;;;;;;;;23.70;37.60;;;;;;1580709;74;749;-53
2021/05/11 05:10:02;;;;;;;;;;;23.70;37.80;;;;;;1584559;74;1183;-55
2021/05/11 05:12:04;;;;;;;;;;;23.70;37.60;;;;;;1575167;74;867;-55
2021/05/11 05:14:06;;;;;;;;;;;23.70;37.90;;;;;;1581622;74;757;-55
2021/05/11 05:16:08;;;;;;;;;;;23.70;38.10;;;;;;1578393;74;656;-56
2021/05/11 05:18:10;;;;;;;;;;;23.90;38.20;;;;;;1573691;74;680;-56
2021/05/11 05:20:12;;;;;;;;;;;23.80;38.10;;;;;;1575836;74;1223;-53
2021/05/11 05:22:14;;;;;;;;;;;23.80;38.10;;;;;;1578606;74;1937;-54
2021/05/11 05:24:21;;;;;;;;;;;23.90;38.10;;;;;;1581119;74;869;-53
2021/05/11 05:26:22;;;;;;;;;;;23.80;38.10;;;;;;1583928;74;1625;-55
2021/05/11 05:28:24;;;;;;;;;;;23.80;38.30;;;;;;1579340;74;1648;-55
2021/05/11 05:30:26;;;;;;;;;;;23.80;38.20;;;;;;1575466;74;1147;-52
2021/05/11 05:32:28;;;;;;;;;;;23.90;38.30;;;;;;1583897;74;744;-55
2021/05/11 05:34:30;;;;;;;;;;;23.90;38.50;;;;;;1589848;74;696;-55
2021/05/11 05:36:32;;;;;;;;;;;23.90;38.40;;;;;;1574373;74;778;-55
2021/05/11 05:38:35;;;;;;;;;;;23.90;38.60;;;;;;1572145;74;767;-55
2021/05/11 05:40:40;;;;;;;;;;;23.80;38.50;;;;;;1576806;74;1145;-55
2021/05/11 05:42:41;;;;;;;;;;;23.80;38.20;;;;;;1589278;74;1930;-55
2021/05/11 05:44:42;;;;;;;;;;;23.80;38.10;;;;;;1576595;74;832;-55
2021/05/11 05:46:44;;;;;;;;;;;23.80;38.00;;;;;;1579013;74;779;-55
2021/05/11 05:48:47;;;;;;;;;;;23.70;38.00;;;;;;1580748;74;740;-53
2021/05/11 05:50:54;;;;;;;;;;;23.70;38.40;;;;;;1594945;74;1138;-54
2021/05/11 05:52:58;;;;;;;;;;;23.70;38.30;;;;;;1587383;74;1486;-54
2021/05/11 05:54:57;;;;;;;;;;;23.70;37.90;;;;;;1576139;74;1503;-56
2021/05/11 05:56:59;;;;;;;;;;;23.60;37.90;;;;;;1579708;74;782;-55
2021/05/11 05:59:01;;;;;;;;;;;23.60;37.80;;;;;;1579467;74;751;-55
2021/05/11 06:01:06;;;;;;;;;;;23.60;37.80;;;;;;1578744;74;1128;-53
2021/05/11 06:03:18;;;;;;;;;;;23.60;37.80;;;;;;1578756;74;1912;-55
2021/05/11 06:05:13;;;;;;;;;;;23.60;37.80;;;;;;1577665;74;1769;-54
2021/05/11 06:07:15;;;;;;;;;;;23.60;37.60;;;;;;1587378;74;1475;-56
2021/05/11 06:09:18;;;;;;;;;;;23.60;37.60;;;;;;1583109;74;749;-54
2021/05/11 06:11:28;;;;;;;;;;;23.60;37.60;;;;;;1581347;74;1207;-56
2021/05/11 06:13:29;;;;;;;;;;;23.60;37.20;;;;;;1586208;74;1745;-54
2021/05/11 06:17:47;;;;;;;;;;;23.40;37.60;;;;;;1582405;74;741;-56
2021/05/11 06:19:51;;;;;;;;;;;23.50;37.70;;;;;;1583872;74;1170;-56
2021/05/11 06:21:53;;;;;;;;;;;23.50;37.80;;;;;;1581267;74;736;-55
2021/05/11 06:23:55;;;;;;;;;;;23.50;37.70;;;;;;1581396;74;1902;-56
2021/05/11 06:25:57;;;;;;;;;;;23.50;37.80;;;;;;1574298;74;838;-55
2021/05/11 06:27:59;;;;;;;;;;;23.50;37.80;;;;;;1577536;74;786;-55
2021/05/11 06:30:01;;;;;;;;;;;23.50;37.90;;;;;;1590533;74;1137;-56
2021/05/11 06:32:03;;;;;;;;;;;23.50;37.80;;;;;;1589429;74;757;-56
2021/05/11 06:34:07;;;;;;;;;;;23.50;37.70;;;;;;1579714;74;722;-56
2021/05/11 06:36:09;;;;;;;;;;;23.60;37.60;;;;;;1584769;74;758;-54
2021/05/11 06:38:11;;;;;;;;;;;23.60;37.60;;;;;;1586934;74;685;-54
2021/05/11 06:40:14;;;;;;;;;;;23.50;37.80;;;;;;1582362;74;1151;-53
2021/05/11 06:42:17;;;;;;;;;;;23.50;37.80;;;;;;1581920;74;1077;-55
2021/05/11 06:49:08;;;;;;;;;;;23.60;37.80;;;;;;1589687;74;828;-54
2021/05/11 06:53:15;;;;;;;;;;;23.70;37.90;;;;;;1587149;74;859;-55
2021/05/11 06:55:18;;;;;;;;;;;23.70;38.00;;;;;;1579631;74;933;-56
2021/05/11 06:57:20;;;;;;;;;;;23.70;37.80;;;;;;1555731;75;1932;-56
2021/05/11 06:59:22;;;;;;;;;;;23.70;37.80;;;;;;1544916;76;748;-54
2021/05/11 07:01:24;;;;;;;;;;;23.70;37.80;;;;;;1559458;75;889;-55
2021/05/11 07:03:26;;;;;;;;;;;23.70;37.80;;;;;;1543234;76;1939;-56
2021/05/11 07:05:31;;;;;;;;;;;23.60;37.70;;;;;;1595448;73;752;-56
2021/05/11 07:07:33;;;;;;;;;;;23.60;37.60;;;;;;1604966;73;1780;-56
2021/05/11 07:09:53;;;;;;;;;;;23.70;37.90;;;;;;1605828;73;1115;-56
2021/05/11 07:13:42;;;;;;;;;;;23.60;37.60;;;;;;1598251;73;744;-54
2021/05/11 07:15:44;;;;;;;;;;;23.70;37.80;;;;;;1594875;73;770;-55
2021/05/11 07:17:46;;;;;;;;;;;23.60;37.80;;;;;;1602644;73;724;-56
2021/05/11 07:19:48;;;;;;;;;;;23.60;37.90;;;;;;1599337;73;1190;-55
2021/05/11 07:21:50;;;;;;;;;;;23.60;37.90;;;;;;1594990;73;747;-55
2021/05/11 07:23:51;;;;;;;;;;;23.60;38.00;;;;;;1594529;73;1938;-54
2021/05/11 07:26:02;;;;;;;;;;;23.60;38.00;;;;;;1602368;73;750;-56
2021/05/11 07:30:25;;;;;;;;;;;23.60;38.10;;;;;;1596445;73;1187;-53
2021/05/11 07:32:20;;;;;;;;;;;23.60;38.10;;;;;;1593012;73;1606;-57
2021/05/11 07:34:22;;;;;;;;;;;23.50;38.20;;;;;;1599830;73;818;-52
2021/05/11 07:36:24;;;;;;;;;;;23.50;38.30;;;;;;1597507;73;752;-55
2021/05/11 07:38:26;;;;;;;;;;;23.50;38.40;;;;;;1593118;73;646;-54
2021/05/11 07:40:27;;;;;;;;;;;23.50;38.20;;;;;;1596207;73;1140;-56
2021/05/11 07:42:31;;;;;;;;;;;23.50;38.40;;;;;;1602675;73;703;-53
2021/05/11 07:44:36;;;;;;;;;;;23.40;38.40;;;;;;1602450;73;1922;-55
2021/05/11 07:51:17;;;;;;;;;;;23.30;38.60;;;;;;1582963;73;1187;-56
2021/05/11 08:16:14;;;;;;;;;;;23.30;38.90;;;;;;1535278;75;1642;-69
2021/05/11 08:29:24;;;;;;;;;;;23.20;39.00;;;;;;1508712;77;1653;-71
2021/05/11 08:31:26;;;;;;;;;;;23.10;39.20;;;;;;1506369;77;777;-70
2021/05/11 08:33:28;;;;;;;;;;;23.10;39.40;;;;;;1505092;77;1135;-68
2021/05/11 08:35:30;;;;;;;;;;;23.00;39.40;;;;;;1502839;77;890;-70
2021/05/11 08:37:32;;;;;;;;;;;23.00;39.50;;;;;;1533900;76;803;-71
2021/05/11 08:39:34;;;;;;;;;;;23.00;39.50;;;;;;1499309;77;755;-70
2021/05/11 08:41:35;;;;;;;;;;;22.90;39.70;;;;;;1494646;77;790;-70
2021/05/11 08:43:40;;;;;;;;;;;23.00;39.50;;;;;;1496938;77;1943;-70
2021/05/11 08:45:41;;;;;;;;;;;23.00;39.40;;;;;;1498310;77;1533;-71
2021/05/11 08:47:49;;;;;;;;;;;23.10;39.40;;;;;;1503381;77;732;-70
2021/05/11 08:49:51;;;;;;;;;;;23.10;39.40;;;;;;1536311;76;871;-71
2021/05/11 09:08:10;;;;;;;;;;;23.00;40.00;;;;;;1541609;76;762;-70
2021/05/11 09:24:04;;;;;;;;;;;23.20;39.70;;;;;;1552450;75;1931;-71
2021/05/11 09:28:38;;;;;;;;;;;23.00;40.20;;;;;;1545044;75;763;-70
2021/05/11 09:30:40;;;;;;;;;;;23.00;40.00;;;;;;1541744;75;1598;-71
2021/05/11 09:57:59;;;;;;;;;;;22.10;42.60;;;;;;1484826;79;859;-71
2021/05/11 10:40:10;;;;;;;;;;;22.70;42.00;;;;;;1554763;76;856;-71
2021/05/11 10:42:22;;;;;;;;;;;22.50;42.30;;;;;;1547708;76;1754;-72
2021/05/11 10:48:36;;;;;;;;;;;22.70;42.20;;;;;;1554331;76;805;-70
2021/05/11 10:50:42;;;;;;;;;;;22.50;42.30;;;;;;1550291;76;778;-71
2021/05/11 10:52:44;;;;;;;;;;;22.50;42.30;;;;;;1547520;76;750;-70
2021/05/11 10:54:49;;;;;;;;;;;22.60;42.20;;;;;;1552326;76;1096;-71
2021/05/11 10:56:52;;;;;;;;;;;22.60;42.10;;;;;;1557624;76;1677;-70
2021/05/11 11:01:19;;;;;;;;;;;22.70;41.80;;;;;;1553484;76;823;-71
2021/05/11 11:03:26;;;;;;;;;;;22.70;41.70;;;;;;1549301;76;1591;-70
2021/05/11 11:05:37;;;;;;;;;;;22.70;41.80;;;;;;1549371;76;1912;-69
2021/05/11 11:07:40;;;;;;;;;;;22.60;41.90;;;;;;1551077;76;725;-71
2021/05/11 11:09:43;;;;;;;;;;;22.40;42.00;;;;;;1558753;76;755;-71
2021/05/11 11:11:45;;;;;;;;;;;22.50;42.20;;;;;;1555447;76;1851;-69
2021/05/11 11:13:47;;;;;;;;;;;22.60;42.00;;;;;;1545051;76;1133;-72
2021/05/11 11:15:49;;;;;;;;;;;22.70;41.90;;;;;;1558131;76;734;-71
2021/05/11 11:17:55;;;;;;;;;;;22.80;41.70;;;;;;1558712;76;843;-70
2021/05/11 11:20:00;;;;;;;;;;;22.80;41.80;;;;;;1550581;76;1558;-70
2021/05/11 11:23:32;;;;;;;;;;;22.90;41.50;;;;;;1556976;76;1463;-72
2021/05/11 11:24:05;;;;;;;;;;;22.90;41.50;;;;;;1553717;76;1950;-71
2021/05/11 11:26:13;;;;;;;;;;;22.90;41.50;;;;;;1544690;76;776;-71
2021/05/11 11:28:15;;;;;;;;;;;22.90;41.30;;;;;;1552461;75;1754;-72
2021/05/11 11:30:17;;;;;;;;;;;22.90;41.10;;;;;;1555632;76;1889;-70
2021/05/11 11:32:21;;;;;;;;;;;22.80;41.20;;;;;;1555006;76;784;-71
2021/05/11 11:34:35;;;;;;;;;;;22.90;41.30;;;;;;1554673;75;1141;-71
2021/05/11 11:36:34;;;;;;;;;;;22.90;41.10;;;;;;1555636;76;1451;-72
2021/05/11 11:38:36;;;;;;;;;;;22.90;41.00;;;;;;1543140;76;727;-70
2021/05/11 11:40:37;;;;;;;;;;;22.90;41.10;;;;;;1552699;76;771;-70
2021/05/11 11:42:40;;;;;;;;;;;22.90;41.10;;;;;;1556299;76;821;-71
2021/05/11 11:44:42;;;;;;;;;;;23.00;41.00;;;;;;1558977;76;1944;-71
2021/05/11 11:46:44;;;;;;;;;;;23.00;40.90;;;;;;1553532;76;710;-71
2021/05/11 11:48:57;;;;;;;;;;;23.00;40.80;;;;;;1551653;76;737;-71
2021/05/11 11:51:02;;;;;;;;;;;22.90;41.10;;;;;;1558580;76;1596;-71
2021/05/11 11:53:07;;;;;;;;;;;22.90;41.40;;;;;;1553880;76;1671;-71
2021/05/11 11:55:28;;;;;;;;;;;22.90;41.60;;;;;;1549930;76;1649;-71
2021/05/11 11:59:56;;;;;;;;;;;23.00;41.70;;;;;;1553883;76;1644;-69
2021/05/11 12:01:58;;;;;;;;;;;22.90;42.30;;;;;;1556378;76;973;-71
2021/05/11 12:04:00;;;;;;;;;;;22.90;42.50;;;;;;1556149;75;1151;-70
2021/05/11 12:06:03;;;;;;;;;;;22.80;42.80;;;;;;1537225;76;1940;-71
2021/05/11 12:08:20;;;;;;;;;;;22.80;42.60;;;;;;1538483;76;749;-70
2021/05/11 12:10:15;;;;;;;;;;;22.90;42.50;;;;;;1544630;76;1618;-69
2021/05/11 12:12:17;;;;;;;;;;;22.90;42.80;;;;;;1555527;76;941;-70
2021/05/11 12:14:19;;;;;;;;;;;22.80;43.10;;;;;;1555495;75;1106;-72
2021/05/11 12:16:21;;;;;;;;;;;22.70;43.10;;;;;;1536549;76;718;-71
2021/05/11 12:18:26;;;;;;;;;;;22.70;43.10;;;;;;1547150;76;736;-71
2021/05/11 12:20:27;;;;;;;;;;;22.80;43.40;;;;;;1553577;76;1674;-70
2021/05/11 12:22:29;;;;;;;;;;;22.70;44.40;;;;;;1544224;76;716;-66
2021/05/11 12:24:34;;;;;;;;;;;22.80;43.70;;;;;;1557427;76;1951;-70
2021/05/11 12:26:36;;;;;;;;;;;22.90;43.90;;;;;;1538647;76;735;-71
2021/05/11 12:28:39;;;;;;;;;;;22.90;43.70;;;;;;1541440;76;698;-70
2021/05/11 12:30:41;;;;;;;;;;;23.00;43.70;;;;;;1514108;77;776;-71
2021/05/11 12:32:43;;;;;;;;;;;23.00;43.20;;;;;;1552814;76;776;-70
2021/05/11 12:34:45;;;;;;;;;;;23.00;43.10;;;;;;1539685;76;1078;-70
2021/05/11 12:36:52;;;;;;;;;;;23.00;43.60;;;;;;1503673;77;1005;-68
2021/05/11 12:38:51;;;;;;;;;;;23.00;43.40;;;;;;1537246;76;1524;-72
2021/05/11 12:42:58;;;;;;;;;;;23.10;42.80;;;;;;1543958;75;1132;-66
2021/05/11 12:45:01;;;;;;;;;;;23.10;42.90;;;;;;1545315;77;1919;-71
2021/05/11 12:47:05;;;;;;;;;;;23.10;41.80;;;;;;1535818;77;718;-69
2021/05/11 12:49:09;;;;;;;;;;;23.20;42.40;;;;;;1542367;77;676;-71
2021/05/11 12:51:11;;;;;;;;;;;23.20;41.90;;;;;;1536550;77;751;-70
2021/05/11 12:53:31;;;;;;;;;;;23.10;41.80;;;;;;1545944;75;1120;-70
2021/05/11 12:55:35;;;;;;;;;;;23.10;41.90;;;;;;1532910;77;1727;-71
2021/05/11 12:57:42;;;;;;;;;;;23.10;42.00;;;;;;1544032;77;742;-70
2021/05/11 12:59:47;;;;;;;;;;;23.10;42.10;;;;;;1542336;76;1111;-71
2021/05/11 13:04:07;;;;;;;;;;;23.10;42.10;;;;;;1541591;77;1169;-71
2021/05/11 13:15:29;;;;;;;;;;;23.10;42.00;;;;;;1535620;77;1699;-70
2021/05/11 13:17:37;;;;;;;;;;;23.10;41.80;;;;;;1528242;77;1786;-69
2021/05/11 13:26:28;;;;;;;;;;;23.10;41.80;;;;;;1537476;77;1893;-68
2021/05/11 13:28:31;;;;;;;;;;;23.10;41.80;;;;;;1545496;76;1611;-70
2021/05/11 13:33:09;;;;;;;;;;;23.10;42.60;;;;;;1541707;77;725;-71
2021/05/11 13:34:59;;;;;;;;;;;23.00;42.00;;;;;;1537418;76;1675;-67
2021/05/11 13:37:01;;;;;;;;;;;23.10;41.50;;;;;;1541552;77;681;-73
2021/05/11 13:39:03;;;;;;;;;;;23.00;40.90;;;;;;1543529;77;674;-70
2021/05/11 13:41:05;;;;;;;;;;;23.10;41.30;;;;;;1535780;75;747;-70
2021/05/11 13:43:07;;;;;;;;;;;23.10;41.40;;;;;;1544327;75;1085;-71
2021/05/11 13:45:09;;;;;;;;;;;23.00;41.30;;;;;;1546332;77;1943;-70
2021/05/11 13:47:11;;;;;;;;;;;23.00;42.20;;;;;;1542304;77;762;-72
2021/05/11 13:49:16;;;;;;;;;;;23.00;42.20;;;;;;1538687;77;753;-70
2021/05/11 13:51:20;;;;;;;;;;;23.00;42.10;;;;;;1541696;75;1663;-71
2021/05/11 13:53:25;;;;;;;;;;;23.10;42.40;;;;;;1539564;76;1150;-71
2021/05/11 13:55:35;;;;;;;;;;;23.10;42.60;;;;;;1540301;77;1682;-71
2021/05/11 14:01:32;;;;;;;;;;;23.00;42.20;;;;;;1538916;77;1631;-71
2021/05/11 14:02:06;;;;;;;;;;;23.10;42.30;;;;;;1537964;77;1474;-71
2021/05/11 14:03:56;;;;;;;;;;;23.10;42.10;;;;;;1552701;73;218260;-57
2021/05/11 14:05:58;;;;;;;;;;;23.10;41.80;;;;;;1577424;75;1934;-57
2021/05/11 14:08:00;;;;;;;;;;;23.10;41.80;;;;;;1576598;75;744;-55
2021/05/11 14:10:02;;;;;;;;;;;23.10;41.70;;;;;;1566852;75;1250;-56
2021/05/11 14:12:04;;;;;;;;;;;23.10;41.80;;;;;;1541340;77;811;-58
2021/05/11 14:14:06;;;;;;;;;;;23.10;42.00;;;;;;1542999;77;810;-57
2021/05/11 14:16:08;;;;;;;;;;;23.10;42.20;;;;;;1542382;77;879;-58
2021/05/11 14:18:10;;;;;;;;;;;23.00;42.20;;;;;;1535747;77;682;-58
2021/05/11 14:20:12;;;;;;;;;;;23.00;41.90;;;;;;1538861;75;1128;-58
2021/05/11 14:22:14;;;;;;;;;;;23.10;42.20;;;;;;1544127;77;765;-58
2021/05/11 14:24:16;;;;;;;;;;;23.10;42.40;;;;;;1536674;77;808;-58
2021/05/11 14:26:18;;;;;;;;;;;23.10;42.30;;;;;;1540632;77;1953;-57
2021/05/11 14:28:20;;;;;;;;;;;23.00;42.60;;;;;;1541124;77;768;-56
2021/05/11 14:30:22;;;;;;;;;;;23.00;42.10;;;;;;1541694;75;1142;-58
2021/05/11 14:32:24;;;;;;;;;;;23.10;42.10;;;;;;1541479;77;892;-58
2021/05/11 14:34:26;;;;;;;;;;;23.00;41.90;;;;;;1540045;77;768;-57
2021/05/11 14:36:28;;;;;;;;;;;23.10;42.10;;;;;;1539534;77;723;-56
2021/05/11 14:38:29;;;;;;;;;;;23.10;41.80;;;;;;1545629;77;757;-55
2021/05/11 14:40:31;;;;;;;;;;;23.10;42.10;;;;;;1548334;75;1116;-58
2021/05/11 14:42:33;;;;;;;;;;;23.00;42.20;;;;;;1544508;75;754;-58
2021/05/11 14:44:35;;;;;;;;;;;23.10;42.40;;;;;;1545921;77;795;-59
2021/05/11 14:46:37;;;;;;;;;;;23.00;42.30;;;;;;1541249;77;1933;-58
2021/05/11 14:48:39;;;;;;;;;;;23.00;42.30;;;;;;1540842;77;785;-58
2021/05/11 14:50:41;;;;;;;;;;;23.00;42.20;;;;;;1531866;77;1137;-58
2021/05/11 14:52:43;;;;;;;;;;;23.00;42.50;;;;;;1541616;77;729;-56
2021/05/11 14:54:44;;;;;;;;;;;23.10;42.70;;;;;;1548021;77;716;-55
2021/05/11 14:56:46;;;;;;;;;;;23.10;42.60;;;;;;1540819;77;734;-57
2021/05/11 14:59:07;;;;;;;;;;;23.00;42.60;;;;;;1548111;77;771;-58
2021/05/11 15:01:10;;;;;;;;;;;23.10;42.80;;;;;;1548700;76;1201;-58
2021/05/11 15:03:14;;;;;;;;;;;23.10;42.50;;;;;;1538321;76;738;-58
2021/05/11 15:05:15;;;;;;;;;;;23.10;42.90;;;;;;1536066;76;1899;-55
2021/05/11 15:07:17;;;;;;;;;;;23.10;42.80;;;;;;1536754;76;805;-56
2021/05/11 15:09:20;;;;;;;;;;;23.10;43.10;;;;;;1542132;76;741;-56
2021/05/11 15:11:22;;;;;;;;;;;23.00;42.80;;;;;;1544661;76;1125;-56
2021/05/11 15:13:24;;;;;;;;;;;23.00;42.80;;;;;;1536044;76;738;-55
2021/05/11 15:15:26;;;;;;;;;;;22.90;42.90;;;;;;1527788;76;751;-59
2021/05/11 15:19:31;;;;;;;;;;;23.00;43.00;;;;;;1538770;76;1079;-59
2021/05/11 15:21:33;;;;;;;;;;;23.00;43.20;;;;;;1534904;76;713;-59
2021/05/11 15:23:35;;;;;;;;;;;22.90;42.80;;;;;;1530052;76;726;-59
2021/05/11 15:25:37;;;;;;;;;;;23.00;43.00;;;;;;1528905;76;1934;-57
2021/05/11 15:27:39;;;;;;;;;;;23.00;43.00;;;;;;1534019;76;728;-56
2021/05/11 15:29:41;;;;;;;;;;;23.00;42.90;;;;;;1534715;76;1146;-57
2021/05/11 15:31:44;;;;;;;;;;;22.90;42.80;;;;;;1530962;76;779;-56
2021/05/11 15:33:46;;;;;;;;;;;22.90;43.30;;;;;;1530713;76;709;-58
2021/05/11 15:35:48;;;;;;;;;;;23.00;42.90;;;;;;1526973;76;775;-58
2021/05/11 15:37:59;;;;;;;;;;;22.90;43.30;;;;;;1539067;76;799;-54
2021/05/11 15:39:58;;;;;;;;;;;22.90;43.20;;;;;;1538705;76;1645;-59
2021/05/11 15:42:00;;;;;;;;;;;22.90;43.40;;;;;;1547785;76;784;-56
2021/05/11 15:44:02;;;;;;;;;;;22.90;43.30;;;;;;1538809;76;709;-58
2021/05/11 15:46:04;;;;;;;;;;;22.90;43.40;;;;;;1540208;76;1934;-58
2021/05/11 15:48:08;;;;;;;;;;;22.90;43.20;;;;;;1538806;76;827;-57
2021/05/11 15:50:10;;;;;;;;;;;22.90;43.40;;;;;;1535563;76;1686;-56
2021/05/11 15:52:12;;;;;;;;;;;22.80;43.50;;;;;;1537831;76;724;-57
2021/05/11 15:54:14;;;;;;;;;;;22.90;43.20;;;;;;1540979;76;756;-56
2021/05/11 15:56:16;;;;;;;;;;;22.80;43.20;;;;;;1536674;75;738;-59
2021/05/11 15:58:18;;;;;;;;;;;22.90;43.30;;;;;;1538093;76;797;-59
2021/05/11 16:00:20;;;;;;;;;;;22.80;43.40;;;;;;1543738;76;1118;-57
2021/05/11 16:02:22;;;;;;;;;;;22.80;43.60;;;;;;1536103;76;719;-59
2021/05/11 16:04:24;;;;;;;;;;;22.80;44.00;;;;;;1547155;76;735;-59